Time;durP1;ratioP1;P1;durP2;ratioP2;P2;SDS_P1;SDS_P2;PMS_P1;PMS_P2;Temp;Humidity;BMP_temperature;BMP_pressure;BME280_temperature;BME280_humidity;BME280_pressure;Samples;Min_cycle;Max_cycle;Signal;HPM_P1;HPM_P2
2022/04/26 03:37:17;;;;;;;19.52;7.35;;;4.80;99.90;;;;;;4953740;28;19928;-85
2022/04/26 03:39:43;;;;;;;18.25;7.25;;;4.80;99.90;;;;;;4970881;28;20069;-86
2022/04/26 03:42:08;;;;;;;14.05;6.82;;;4.80;99.90;;;;;;4951147;28;20078;-85
2022/04/26 03:44:34;;;;;;;18.25;7.22;;;5.00;99.90;;;;;;4954217;28;20118;-87
2022/04/26 03:47:00;;;;;;;22.42;6.68;;;4.80;99.90;;;;;;4958322;28;20522;-86
2022/04/26 03:49:26;;;;;;;18.75;6.70;;;4.70;99.90;;;;;;4954243;28;20042;-86
2022/04/26 03:51:52;;;;;;;15.55;6.90;;;4.70;99.90;;;;;;4956695;28;20054;-86
2022/04/26 03:54:22;;;;;;;22.30;7.03;;;4.70;99.90;;;;;;4972944;28;20283;-86
2022/04/26 03:56:48;;;;;;;13.38;6.80;;;4.70;99.90;;;;;;4967540;28;20069;-87
2022/04/26 03:59:13;;;;;;;15.52;6.97;;;4.70;99.90;;;;;;4954873;28;20050;-85
2022/04/26 04:01:39;;;;;;;18.25;6.28;;;4.70;99.90;;;;;;4939791;28;20039;-86
2022/04/26 04:04:05;;;;;;;14.70;6.50;;;4.70;99.90;;;;;;4971906;28;20129;-86
2022/04/26 04:06:31;;;;;;;17.42;6.95;;;4.70;99.90;;;;;;4953446;28;20054;-86
2022/04/26 04:08:57;;;;;;;13.02;5.95;;;4.70;99.90;;;;;;4955064;28;20042;-86
2022/04/26 04:11:22;;;;;;;20.17;6.78;;;4.70;99.90;;;;;;4955018;28;20061;-86
2022/04/26 04:13:49;;;;;;;19.90;5.90;;;4.70;99.90;;;;;;4952176;28;20455;-86
2022/04/26 04:16:15;;;;;;;16.75;6.63;;;4.70;99.90;;;;;;4949024;28;20106;-85
2022/04/26 04:21:25;;;;;;;16.83;5.90;;;4.70;99.90;;;;;;4958120;28;20086;-86
2022/04/26 04:23:50;;;;;;;16.38;5.82;;;4.70;99.90;;;;;;4965693;28;20101;-86
2022/04/26 04:26:16;;;;;;;14.25;5.50;;;4.70;99.90;;;;;;4958923;28;20451;-85
2022/04/26 04:28:42;;;;;;;18.75;6.18;;;4.70;99.90;;;;;;4938716;28;20113;-85
2022/04/26 04:31:10;;;;;;;19.25;6.18;;;4.80;99.90;;;;;;4977075;28;20074;-85
2022/04/26 04:33:37;;;;;;;14.00;6.32;;;4.80;99.90;;;;;;4943099;28;20153;-86
2022/04/26 04:36:03;;;;;;;18.90;5.53;;;4.90;99.90;;;;;;4956739;28;20034;-85
2022/04/26 04:38:29;;;;;;;21.13;6.10;;;4.90;99.90;;;;;;4957651;28;20054;-86
2022/04/26 04:40:57;;;;;;;21.88;6.25;;;5.00;99.90;;;;;;4954772;28;20043;-87
2022/04/26 04:43:23;;;;;;;23.13;5.65;;;5.10;99.90;;;;;;4960759;28;20633;-87
2022/04/26 04:45:49;;;;;;;21.92;6.57;;;5.20;99.90;;;;;;4971046;28;20362;-85
2022/04/26 04:48:15;;;;;;;14.27;6.50;;;6.10;99.90;;;;;;4960886;28;20328;-85
2022/04/26 04:50:41;;;;;;;17.15;5.90;;;5.30;99.90;;;;;;4969404;28;20043;-87
2022/04/26 04:53:07;;;;;;;13.93;6.00;;;5.50;99.90;;;;;;4971190;28;20054;-86
2022/04/26 04:55:33;;;;;;;17.50;6.00;;;5.50;99.90;;;;;;4955031;28;20600;-85
2022/04/26 04:57:58;;;;;;;15.65;6.18;;;5.60;99.90;;;;;;4968505;28;20830;-85
2022/04/26 05:00:27;;;;;;;13.95;5.78;;;5.70;99.90;;;;;;4969056;28;20050;-86
2022/04/26 05:02:53;;;;;;;18.30;6.30;;;5.80;99.90;;;;;;4957949;28;20052;-84
2022/04/26 05:05:19;;;;;;;17.42;6.25;;;6.20;99.90;;;;;;4944042;28;20470;-85
2022/04/26 05:07:45;;;;;;;19.30;6.00;;;6.80;99.90;;;;;;4979449;28;20046;-85
2022/04/26 05:10:10;;;;;;;16.83;5.47;;;8.50;99.90;;;;;;4977851;28;20057;-86
2022/04/26 05:12:36;;;;;;;13.98;5.18;;;8.60;99.90;;;;;;4976018;28;20053;-86
2022/04/26 05:15:02;;;;;;;15.75;4.97;;;9.30;99.90;;;;;;4977214;28;20050;-86
2022/04/26 05:17:28;;;;;;;13.52;4.20;;;10.10;99.90;;;;;;4983062;28;20074;-86
2022/04/26 05:19:57;;;;;;;11.20;4.18;;;10.90;99.90;;;;;;4957346;28;20171;-85
2022/04/26 05:22:23;;;;;;;14.18;3.72;;;11.50;99.90;;;;;;4961801;28;20042;-81
2022/04/26 05:24:58;;;;;;;14.30;4.78;;;11.50;99.90;;;;;;4975346;28;20326;-80
2022/04/26 05:27:26;;;;;;;18.23;4.10;;;11.50;99.90;;;;;;4945710;28;20046;-80
2022/04/26 05:29:55;;;;;;;13.02;4.53;;;11.50;99.90;;;;;;4956967;28;20058;-80
2022/04/26 05:32:22;;;;;;;9.68;3.70;;;11.60;99.90;;;;;;4975375;28;20049;-80
2022/04/26 05:34:58;;;;;;;11.75;3.90;;;11.80;99.90;;;;;;4943611;28;21249;-80
2022/04/26 05:37:28;;;;;;;12.05;4.55;;;11.90;99.90;;;;;;4928569;28;20081;-81
2022/04/26 05:39:55;;;;;;;11.93;3.30;;;12.00;99.90;;;;;;4962089;28;20457;-79
2022/04/26 05:42:21;;;;;;;12.57;3.80;;;12.40;99.90;;;;;;4946645;28;20050;-80
2022/04/26 05:44:46;;;;;;;11.52;4.07;;;11.40;99.90;;;;;;4957160;28;20050;-81
2022/04/26 05:47:12;;;;;;;12.68;3.63;;;11.20;99.90;;;;;;4980716;28;21344;-81
2022/04/26 05:49:38;;;;;;;11.23;3.50;;;10.80;99.90;;;;;;4993550;28;20058;-81
2022/04/26 05:52:04;;;;;;;11.88;4.07;;;10.90;99.90;;;;;;4955714;28;20113;-81
2022/04/26 05:54:30;;;;;;;11.93;3.60;;;10.80;99.90;;;;;;4960507;28;20077;-81
2022/04/26 05:56:56;;;;;;;11.43;3.30;;;10.70;99.90;;;;;;4962658;28;20046;-82
2022/04/26 05:59:23;;;;;;;10.65;3.88;;;10.60;99.90;;;;;;4956741;28;20050;-81
2022/04/26 06:01:49;;;;;;;12.18;4.30;;;10.10;99.90;;;;;;4938289;28;20052;-81
2022/04/26 06:04:16;;;;;;;13.00;3.72;;;9.90;99.90;;;;;;4957960;28;20486;-82
2022/04/26 06:06:41;;;;;;;10.15;3.53;;;9.80;99.90;;;;;;4973748;28;20664;-81
2022/04/26 06:09:08;;;;;;;11.27;2.92;;;9.70;99.90;;;;;;4945210;28;20043;-81
2022/04/26 06:11:33;;;;;;;17.77;4.07;;;9.60;99.90;;;;;;4966366;28;20046;-81
2022/04/26 06:14:01;;;;;;;14.60;3.85;;;9.50;99.90;;;;;;4961874;28;20454;-81
2022/04/26 06:16:28;;;;;;;8.40;3.25;;;9.40;99.90;;;;;;4967463;28;20615;-81
2022/04/26 06:18:54;;;;;;;11.05;3.53;;;9.40;99.90;;;;;;4944185;28;20093;-81
2022/04/26 06:21:19;;;;;;;14.70;4.10;;;9.60;99.90;;;;;;4956821;28;20468;-81
2022/04/26 06:23:45;;;;;;;8.55;3.58;;;9.70;99.90;;;;;;4978436;28;20046;-83
2022/04/26 06:26:11;;;;;;;12.10;3.33;;;10.60;99.90;;;;;;4976956;28;20061;-82
2022/04/26 06:28:36;;;;;;;13.88;3.75;;;11.20;99.90;;;;;;4958209;28;20097;-82
2022/04/26 06:31:02;;;;;;;12.55;3.55;;;11.50;99.90;;;;;;4956372;28;20058;-82
2022/04/26 06:33:29;;;;;;;9.05;3.42;;;11.20;99.90;;;;;;4953758;28;20696;-82
2022/04/26 06:35:55;;;;;;;10.73;3.65;;;10.80;99.90;;;;;;4974975;28;20071;-81
2022/04/26 06:38:23;;;;;;;10.63;3.47;;;10.40;99.90;;;;;;4958650;28;20526;-84
2022/04/26 06:40:49;;;;;;;12.43;3.70;;;10.80;99.90;;;;;;4957010;28;20085;-83
2022/04/26 06:43:15;;;;;;;13.70;3.72;;;9.70;99.90;;;;;;4962319;28;20081;-80
2022/04/26 06:45:41;;;;;;;11.73;3.40;;;9.50;99.90;;;;;;4959163;28;20049;-85
2022/04/26 06:48:10;;;;;;;10.43;3.58;;;9.30;99.90;;;;;;4938113;28;20050;-81
2022/04/26 06:50:38;;;;;;;12.75;3.70;;;9.20;99.90;;;;;;4942032;28;20465;-80
2022/04/26 06:53:05;;;;;;;12.68;3.80;;;9.60;99.90;;;;;;4960398;28;20105;-80
2022/04/26 06:55:30;;;;;;;15.35;4.63;;;9.80;99.90;;;;;;4986255;28;20515;-81
2022/04/26 06:57:56;;;;;;;10.38;3.53;;;10.80;99.90;;;;;;4947784;28;20378;-81
2022/04/26 07:00:22;;;;;;;11.13;3.72;;;11.40;99.90;;;;;;4957610;28;20039;-83
2022/04/26 07:02:48;;;;;;;9.57;3.28;;;11.80;99.90;;;;;;4956005;28;20030;-81
2022/04/26 07:05:18;;;;;;;12.88;3.75;;;11.20;99.90;;;;;;4966099;28;20039;-86
2022/04/26 07:07:43;;;;;;;10.15;3.50;;;11.20;99.90;;;;;;4964098;28;20518;-81
2022/04/26 07:10:10;;;;;;;14.32;4.45;;;10.80;99.90;;;;;;4978182;28;20376;-82
2022/04/26 07:12:36;;;;;;;12.02;3.30;;;10.40;99.90;;;;;;4958669;28;20411;-82
2022/04/26 07:15:03;;;;;;;8.48;3.65;;;10.20;99.90;;;;;;4953865;28;20050;-80
2022/04/26 07:17:30;;;;;;;11.27;3.45;;;9.90;99.90;;;;;;4952138;28;20042;-81
2022/04/26 07:19:58;;;;;;;13.63;3.40;;;9.80;99.90;;;;;;4951333;28;20043;-83
2022/04/26 07:22:24;;;;;;;11.27;3.63;;;9.60;99.90;;;;;;4980960;28;20050;-81
2022/04/26 07:24:50;;;;;;;10.90;3.88;;;9.60;99.90;;;;;;4934445;28;20047;-80
2022/04/26 07:27:20;;;;;;;9.85;3.10;;;9.60;99.90;;;;;;4966254;28;20042;-81
2022/04/26 07:29:53;;;;;;;12.43;3.88;;;9.60;99.90;;;;;;4946136;28;20046;-81
2022/04/26 07:32:19;;;;;;;14.15;3.55;;;9.80;99.90;;;;;;4945312;28;20054;-82
2022/04/26 07:34:45;;;;;;;9.65;3.25;;;10.10;99.90;;;;;;4963326;28;20114;-80
2022/04/26 07:37:11;;;;;;;12.18;3.17;;;9.90;99.90;;;;;;4961847;28;20464;-84
2022/04/26 07:39:37;;;;;;;13.48;3.97;;;9.90;99.90;;;;;;4944742;28;20051;-80
2022/04/26 07:42:04;;;;;;;13.93;3.90;;;9.80;99.90;;;;;;4926461;28;20555;-83
2022/04/26 07:44:31;;;;;;;12.27;3.42;;;9.80;99.90;;;;;;4945089;28;20054;-82
2022/04/26 07:46:58;;;;;;;10.90;3.03;;;9.70;99.90;;;;;;4942361;28;20403;-86
2022/04/26 07:49:24;;;;;;;11.90;2.92;;;9.60;99.90;;;;;;4964898;28;20051;-81
2022/04/26 07:51:52;;;;;;;9.50;3.03;;;9.70;99.90;;;;;;4929254;28;20046;-83
2022/04/26 07:54:18;;;;;;;12.07;2.63;;;10.30;99.90;;;;;;4946368;28;20042;-82
2022/04/26 07:56:44;;;;;;;7.70;2.58;;;11.00;99.90;;;;;;4962851;28;20043;-82
2022/04/26 07:59:10;;;;;;;8.10;2.50;;;11.40;99.90;;;;;;4936431;28;21907;-84
2022/04/26 08:01:40;;;;;;;13.35;2.95;;;11.70;99.90;;;;;;4961066;28;20045;-84
2022/04/26 08:04:06;;;;;;;9.82;2.72;;;11.70;99.90;;;;;;4952941;28;20041;-83
2022/04/26 08:06:32;;;;;;;9.18;2.50;;;11.70;99.90;;;;;;4963611;28;20042;-84
2022/04/26 08:08:58;;;;;;;10.30;2.75;;;11.80;99.90;;;;;;4942853;28;20512;-83
2022/04/26 08:11:28;;;;;;;11.43;2.92;;;11.80;99.90;;;;;;4945264;28;20562;-83
2022/04/26 08:13:58;;;;;;;8.73;2.42;;;11.90;99.90;;;;;;4962606;28;20065;-86
2022/04/26 08:16:24;;;;;;;9.52;2.97;;;12.20;99.90;;;;;;4946598;28;20086;-86
2022/04/26 08:18:49;;;;;;;8.95;2.70;;;12.40;99.90;;;;;;4928519;28;20100;-82
2022/04/26 08:21:26;;;;;;;8.65;2.88;;;12.30;99.90;;;;;;4947732;28;20042;-86
2022/04/26 08:29:22;;;;;;;10.48;3.35;;;12.70;99.90;;;;;;4961842;28;20102;-86
2022/04/26 08:31:48;;;;;;;12.15;2.80;;;12.90;99.90;;;;;;4962550;28;20046;-86
2022/04/26 08:34:16;;;;;;;8.05;2.58;;;14.00;99.90;;;;;;4947158;28;20535;-82
2022/04/26 08:36:42;;;;;;;8.15;2.70;;;13.00;99.90;;;;;;4936870;28;20054;-84
2022/04/26 08:39:08;;;;;;;8.77;2.63;;;13.00;99.90;;;;;;4933195;28;20047;-82
2022/04/26 08:41:34;;;;;;;7.43;2.40;;;12.90;99.90;;;;;;4957615;28;20050;-84
2022/04/26 08:43:59;;;;;;;9.07;2.53;;;12.60;99.90;;;;;;4937451;28;20042;-83
2022/04/26 08:50:59;;;;;;;11.25;2.50;;;12.30;99.90;;;;;;4937057;28;20600;-82
2022/04/26 08:52:06;;;;;;;7.95;2.85;;;11.90;99.90;;;;;;4958916;28;20051;-87
2022/04/26 08:54:32;;;;;;;10.15;2.55;;;12.00;99.90;;;;;;4948707;28;20042;-84
2022/04/26 08:56:58;;;;;;;8.77;2.63;;;12.30;99.90;;;;;;4944603;28;20050;-85
2022/04/26 08:59:28;;;;;;;10.32;2.42;;;12.80;99.90;;;;;;4958263;28;20134;-86
2022/04/26 09:02:15;;;;;;;7.70;2.03;;;13.20;99.90;;;;;;4961666;28;20129;-82
2022/04/26 09:04:42;;;;;;;6.20;2.30;;;13.40;99.90;;;;;;4961486;28;20124;-84
2022/04/26 09:07:12;;;;;;;8.20;2.40;;;13.50;99.90;;;;;;4932823;28;20050;-87
2022/04/26 09:09:39;;;;;;;12.07;2.55;;;13.80;99.90;;;;;;4951306;28;20039;-84
2022/04/26 09:12:10;;;;;;;8.30;2.40;;;14.30;99.90;;;;;;4949347;28;20078;-81
2022/04/26 09:14:47;;;;;;;10.40;2.63;;;13.50;99.90;;;;;;4947323;28;20042;-83
2022/04/26 09:17:13;;;;;;;7.80;2.47;;;13.20;99.90;;;;;;4962195;28;20059;-81
2022/04/26 09:19:57;;;;;;;7.53;2.50;;;13.00;99.90;;;;;;4939557;28;20115;-80
2022/04/26 09:22:27;;;;;;;9.00;2.20;;;12.60;99.90;;;;;;4986356;28;20042;-81
2022/04/26 09:25:04;;;;;;;5.70;2.22;;;12.30;99.90;;;;;;4945395;28;20128;-81
2022/04/26 09:27:30;;;;;;;7.07;2.08;;;12.50;99.90;;;;;;4943745;28;20777;-82
2022/04/26 09:29:56;;;;;;;8.43;2.50;;;12.80;99.90;;;;;;4948714;28;20050;-82
2022/04/26 09:32:23;;;;;;;9.10;2.25;;;13.20;99.90;;;;;;4968398;28;20038;-84
2022/04/26 09:34:49;;;;;;;11.52;2.40;;;13.40;99.90;;;;;;4972712;28;20039;-86
2022/04/26 09:37:16;;;;;;;9.85;2.55;;;13.40;99.90;;;;;;4959669;28;20128;-81
2022/04/26 09:40:06;;;;;;;10.50;2.90;;;13.20;99.90;;;;;;4932044;28;20077;-81
2022/04/26 09:42:33;;;;;;;8.15;2.63;;;12.80;99.90;;;;;;4966866;28;20104;-82
2022/04/26 09:45:09;;;;;;;10.27;3.10;;;12.60;99.90;;;;;;4964800;28;20530;-82
2022/04/26 09:47:39;;;;;;;8.25;2.63;;;12.70;99.90;;;;;;4958596;28;20058;-81
2022/04/26 09:50:09;;;;;;;7.63;2.63;;;13.10;99.90;;;;;;4939780;28;20051;-81
2022/04/26 09:52:35;;;;;;;8.48;2.05;;;13.30;99.90;;;;;;4959068;28;20274;-83
2022/04/26 09:55:04;;;;;;;7.40;2.33;;;13.60;99.90;;;;;;4973123;28;20423;-79
2022/04/26 09:57:34;;;;;;;8.00;2.53;;;13.60;99.90;;;;;;4957241;28;20614;-86
2022/04/26 10:00:01;;;;;;;6.00;2.35;;;13.30;99.90;;;;;;4940625;28;20505;-84
2022/04/26 10:02:37;;;;;;;9.02;2.55;;;13.10;99.90;;;;;;4943743;28;20099;-85
2022/04/26 10:05:06;;;;;;;10.48;3.05;;;13.30;99.90;;;;;;4943089;28;20397;-84
2022/04/26 10:07:36;;;;;;;9.13;2.83;;;13.60;99.90;;;;;;4950350;28;20775;-86
2022/04/26 10:10:06;;;;;;;7.03;2.72;;;13.70;99.90;;;;;;4949869;28;20623;-85
2022/04/26 10:12:33;;;;;;;8.35;2.50;;;13.50;99.90;;;;;;4945362;28;20109;-86
2022/04/26 10:15:00;;;;;;;7.28;2.42;;;13.40;99.90;;;;;;4947685;29;20039;-85
2022/04/26 10:17:26;;;;;;;9.25;2.45;;;13.10;99.90;;;;;;4948918;29;20043;-86
2022/04/26 10:19:52;;;;;;;6.32;2.38;;;12.80;99.90;;;;;;4931209;29;20562;-84
2022/04/26 10:22:57;;;;;;;9.48;2.15;;;13.10;99.90;;;;;;4950498;28;20070;-86
2022/04/26 10:25:26;;;;;;;9.00;2.67;;;13.60;99.90;;;;;;4965840;28;20055;-87
2022/04/26 10:28:21;;;;;;;8.65;2.78;;;13.50;99.90;;;;;;4946422;29;20059;-81
2022/04/26 10:30:52;;;;;;;10.10;2.20;;;13.30;99.90;;;;;;4978412;28;20066;-81
2022/04/26 10:33:40;;;;;;;9.30;2.17;;;13.10;99.90;;;;;;4947505;28;20043;-83
2022/04/26 10:36:26;;;;;;;8.07;2.38;;;13.20;99.90;;;;;;4940783;29;20043;-81
2022/04/26 10:39:13;;;;;;;6.70;2.33;;;13.60;99.90;;;;;;4923782;28;20054;-84
2022/04/26 10:41:44;;;;;;;9.30;2.80;;;14.00;99.90;;;;;;4945317;28;20051;-90
2022/04/26 10:44:13;;;;;;;10.30;2.33;;;14.50;99.90;;;;;;4945934;28;20039;-82
2022/04/26 10:46:43;;;;;;;6.35;1.92;;;14.90;98.40;;;;;;4951236;28;20051;-82
2022/04/26 10:49:24;;;;;;;5.57;1.92;;;14.70;99.30;;;;;;4946400;28;20134;-83
2022/04/26 10:51:51;;;;;;;;;;;14.90;98.90;;;;;;4942229;28;20039;-82
2022/04/26 10:54:51;;;;;;;7.60;2.10;;;15.50;95.90;;;;;;4936180;28;20366;-85
2022/04/26 10:57:33;;;;;;;7.22;2.20;;;14.90;96.00;;;;;;4956983;28;20074;-82
2022/04/26 11:00:14;;;;;;;14.35;2.33;;;14.60;98.30;;;;;;4959266;28;20222;-81
2022/04/26 11:02:50;;;;;;;13.88;2.65;;;14.60;98.30;;;;;;4970067;28;20035;-81
2022/04/26 11:05:26;;;;;;;8.10;2.40;;;14.60;96.40;;;;;;4956545;28;20075;-81
2022/04/26 11:07:53;;;;;;;9.00;2.58;;;14.80;98.10;;;;;;4984580;28;20061;-82
2022/04/26 11:10:24;;;;;;;6.38;2.15;;;14.70;97.40;;;;;;4937056;28;20055;-81
2022/04/26 11:12:50;;;;;;;7.82;2.35;;;15.00;98.00;;;;;;4936276;28;20067;-82
2022/04/26 11:15:24;;;;;;;6.85;2.55;;;15.30;94.70;;;;;;4957621;28;20043;-80
2022/04/26 11:17:52;;;;;;;9.43;2.20;;;14.70;91.50;;;;;;4956847;28;20042;-79
2022/04/26 11:20:25;;;;;;;8.27;2.45;;;14.50;96.70;;;;;;4982050;28;20118;-82
2022/04/26 11:22:55;;;;;;;7.90;2.10;;;14.60;96.30;;;;;;4950611;28;20444;-86
2022/04/26 11:28:17;;;;;;;8.02;2.67;;;14.00;95.00;;;;;;4973879;28;20027;-82
2022/04/26 11:30:54;;;;;;;10.68;2.92;;;14.00;97.10;;;;;;4973988;28;20058;-81
2022/04/26 11:33:22;;;;;;;8.68;2.67;;;14.10;96.50;;;;;;4987607;28;20051;-81
2022/04/26 11:35:54;;;;;;;5.00;2.33;;;13.90;96.60;;;;;;4958307;28;20039;-85
2022/04/26 11:38:21;;;;;;;9.98;2.83;;;13.60;96.60;;;;;;4976333;28;20065;-86
2022/04/26 11:40:52;;;;;;;6.18;2.05;;;13.80;97.80;;;;;;4939846;28;20130;-88
2022/04/26 11:43:19;;;;;;;;;;;13.90;95.30;;;;;;4946899;28;20094;-85
2022/04/26 11:45:47;;;;;;;8.13;2.47;;;14.20;96.90;;;;;;4957707;28;19937;-86
2022/04/26 11:48:25;;;;;;;7.18;2.10;;;14.30;96.20;;;;;;4956341;28;20153;-89
2022/04/26 11:50:53;;;;;;;7.93;2.70;;;14.50;93.40;;;;;;4975454;28;20436;-80
2022/04/26 11:53:24;;;;;;;8.63;2.50;;;14.50;92.50;;;;;;4948064;28;20067;-86
2022/04/26 11:55:57;;;;;;;;;;;14.50;94.80;;;;;;4959475;28;20043;-81
2022/04/26 11:58:35;;;;;;;7.45;2.60;;;14.50;94.30;;;;;;4957372;28;20393;-78
2022/04/26 12:01:07;;;;;;;7.70;2.03;;;14.40;95.50;;;;;;4951136;28;20062;-78
2022/04/26 12:03:46;;;;;;;6.60;2.00;;;14.30;95.30;;;;;;4950189;28;22021;-78
2022/04/26 12:06:14;;;;;;;8.10;2.97;;;14.60;94.40;;;;;;4939244;28;20055;-78
2022/04/26 12:08:44;;;;;;;9.38;2.42;;;14.80;94.00;;;;;;4952231;28;20047;-78
2022/04/26 12:11:27;;;;;;;5.70;2.35;;;14.70;94.60;;;;;;4951273;28;20047;-80
2022/04/26 12:14:07;;;;;;;8.65;2.38;;;14.40;96.30;;;;;;4939212;29;20080;-86
2022/04/26 12:16:41;;;;;;;9.07;2.50;;;14.10;94.50;;;;;;4943526;29;20066;-81
2022/04/26 12:19:08;;;;;;;8.10;2.30;;;14.10;96.40;;;;;;4944722;29;20121;-81
2022/04/26 12:21:44;;;;;;;9.80;2.65;;;13.80;96.10;;;;;;4944695;29;20535;-82
2022/04/26 12:24:15;;;;;;;7.43;2.38;;;13.60;96.40;;;;;;4928752;29;20043;-84
2022/04/26 12:26:55;;;;;;;8.18;2.30;;;13.60;97.40;;;;;;4928135;29;20067;-81
2022/04/26 12:29:23;;;;;;;7.15;2.38;;;13.70;95.90;;;;;;4925241;29;20063;-83
2022/04/26 12:31:49;;;;;;;8.32;2.05;;;13.90;96.90;;;;;;4951708;28;20059;-80
2022/04/26 12:34:29;;;;;;;8.18;2.25;;;14.10;96.20;;;;;;4940688;29;20144;-83
2022/04/26 12:37:08;;;;;;;6.70;2.42;;;14.30;96.30;;;;;;4944331;29;20058;-81
2022/04/26 12:39:51;;;;;;;7.00;2.20;;;14.20;95.80;;;;;;4939794;29;20600;-81
2022/04/26 12:42:29;;;;;;;7.45;2.10;;;14.00;96.30;;;;;;4917898;29;20533;-80
2022/04/26 12:44:58;;;;;;;7.40;2.38;;;14.00;96.00;;;;;;4930317;29;20043;-81
2022/04/26 12:50:36;;;;;;;9.52;2.22;;;14.20;95.60;;;;;;4933500;29;20052;-84
2022/04/26 12:53:20;;;;;;;5.80;2.28;;;14.30;95.40;;;;;;4935967;29;20043;-81
2022/04/26 12:55:45;;;;;;;4.30;1.90;;;14.20;94.90;;;;;;4932019;29;20103;-81
2022/04/26 12:58:13;;;;;;;5.85;2.00;;;14.00;96.50;;;;;;4933408;29;20047;-82
2022/04/26 13:00:50;;;;;;;7.38;2.65;;;13.90;95.40;;;;;;4933104;28;20110;-81
2022/04/26 13:03:19;;;;;;;7.05;2.40;;;13.70;96.20;;;;;;4949687;28;20240;-81
2022/04/26 13:05:47;;;;;;;5.40;1.88;;;13.80;96.20;;;;;;4918178;29;20050;-84
2022/04/26 13:08:15;;;;;;;9.13;2.70;;;14.20;97.00;;;;;;4933041;29;20118;-82
2022/04/26 13:10:42;;;;;;;8.00;2.47;;;14.00;96.90;;;;;;4940880;29;20100;-82
2022/04/26 13:13:09;;;;;;;7.45;2.85;;;14.30;96.30;;;;;;4956296;28;20062;-81
2022/04/26 13:15:36;;;;;;;6.80;2.42;;;14.60;96.30;;;;;;4937425;29;20051;-82
2022/04/26 13:18:07;;;;;;;6.90;2.10;;;14.80;95.70;;;;;;4922961;29;20043;-81
2022/04/26 13:20:33;;;;;;;6.18;2.10;;;15.10;94.80;;;;;;4938929;29;20043;-82
2022/04/26 13:22:59;;;;;;;6.50;2.22;;;15.20;92.20;;;;;;4937458;29;20047;-82
2022/04/26 13:25:26;;;;;;;8.70;2.30;;;15.00;92.10;;;;;;4921954;29;20058;-82
2022/04/26 13:27:52;;;;;;;7.88;2.17;;;14.90;94.30;;;;;;4959103;29;20055;-81
2022/04/26 13:30:18;;;;;;;6.72;2.17;;;14.70;95.30;;;;;;4953682;29;20063;-81
2022/04/26 13:32:44;;;;;;;8.98;3.95;;;14.60;96.40;;;;;;4957120;29;20043;-79
2022/04/26 13:35:10;;;;;;;9.32;2.40;;;14.50;97.90;;;;;;4952139;29;20106;-81
2022/04/26 13:37:36;;;;;;;7.38;2.65;;;14.50;97.30;;;;;;4944683;29;20476;-82
2022/04/26 13:40:03;;;;;;;9.52;2.67;;;14.50;96.00;;;;;;4925092;29;20054;-84
2022/04/26 13:42:30;;;;;;;8.63;2.38;;;14.30;95.50;;;;;;4937779;29;20047;-79
2022/04/26 13:44:58;;;;;;;9.32;3.03;;;14.00;96.30;;;;;;4921501;29;20104;-80
2022/04/26 13:47:24;;;;;;;7.07;2.50;;;13.80;97.60;;;;;;4943807;29;20051;-82
2022/04/26 13:49:51;;;;;;;6.80;2.45;;;13.60;97.00;;;;;;4937736;29;20047;-80
2022/04/26 13:52:17;;;;;;;7.00;2.42;;;13.40;97.70;;;;;;4919647;29;20469;-81
2022/04/26 13:54:43;;;;;;;7.95;2.22;;;13.30;99.10;;;;;;4948571;28;20047;-83
2022/04/26 13:57:10;;;;;;;8.13;2.05;;;13.30;99.00;;;;;;4938612;29;20317;-84
2022/04/26 13:59:36;;;;;;;8.35;2.78;;;13.30;98.70;;;;;;4922332;29;20047;-83
2022/04/26 14:02:04;;;;;;;7.22;2.45;;;13.20;99.20;;;;;;4966465;28;20047;-82
2022/04/26 14:04:29;;;;;;;10.52;2.20;;;13.10;98.50;;;;;;4936588;29;20126;-82
2022/04/26 14:06:58;;;;;;;8.73;2.10;;;13.00;99.20;;;;;;4944262;28;20174;-83
2022/04/26 14:09:24;;;;;;;7.75;2.05;;;13.00;99.70;;;;;;4936552;29;20122;-81
2022/04/26 14:11:51;;;;;;;5.78;1.85;;;12.90;99.70;;;;;;4940217;28;20057;-83
2022/04/26 14:22:32;;;;;;;9.88;2.58;;;12.90;99.90;;;;;;4943692;28;20078;-81
2022/04/26 14:25:03;;;;;;;6.63;2.10;;;12.50;99.90;;;;;;4950983;28;20602;-82
2022/04/26 14:27:32;;;;;;;6.65;2.50;;;12.40;99.90;;;;;;4954628;28;20117;-81
2022/04/26 14:30:00;;;;;;;7.43;2.13;;;12.40;99.90;;;;;;4943875;28;20046;-86
2022/04/26 14:32:26;;;;;;;6.70;2.20;;;12.30;99.90;;;;;;4944358;28;20707;-84
2022/04/26 14:34:52;;;;;;;6.88;2.55;;;12.00;99.90;;;;;;4939180;28;20113;-82
2022/04/26 14:37:19;;;;;;;6.03;1.90;;;12.40;99.90;;;;;;4940874;28;20496;-84
2022/04/26 14:39:45;;;;;;;7.25;1.95;;;12.40;99.90;;;;;;4956854;28;20055;-82
2022/04/26 14:42:11;;;;;;;8.70;2.70;;;12.30;99.90;;;;;;4955223;28;20466;-83
2022/04/26 14:44:37;;;;;;;5.95;2.10;;;12.40;99.90;;;;;;4953328;28;20046;-82
2022/04/26 14:47:03;;;;;;;7.53;2.42;;;12.50;99.90;;;;;;4950707;28;20420;-83
2022/04/26 14:49:38;;;;;;;6.50;2.22;;;12.70;99.90;;;;;;4951486;28;20121;-82
2022/04/26 14:52:06;;;;;;;9.10;2.30;;;12.90;99.90;;;;;;4950859;28;20055;-87
2022/04/26 14:54:32;;;;;;;7.97;2.22;;;13.20;99.90;;;;;;4935350;28;20050;-82
2022/04/26 14:56:58;;;;;;;9.80;2.70;;;13.20;99.60;;;;;;4945068;28;20059;-81
2022/04/26 14:59:25;;;;;;;5.68;2.08;;;13.20;98.90;;;;;;4955681;28;20089;-81
2022/04/26 15:01:52;;;;;;;8.43;2.30;;;13.30;99.60;;;;;;4955079;28;20070;-81
2022/04/26 15:04:20;;;;;;;6.25;2.38;;;13.20;99.90;;;;;;4949626;28;20048;-81
2022/04/26 15:06:47;;;;;;;5.75;2.17;;;13.20;99.60;;;;;;4949347;28;20042;-79
2022/04/26 15:17:28;;;;;;;7.25;1.85;;;13.50;97.90;;;;;;4988793;28;20062;-82
2022/04/26 15:19:53;;;;;;;7.45;2.60;;;13.20;97.10;;;;;;4969374;28;20035;-81
2022/04/26 15:22:19;;;;;;;6.93;2.35;;;13.30;97.00;;;;;;5003651;28;20058;-81
2022/04/26 15:24:46;;;;;;;9.57;2.08;;;13.40;98.00;;;;;;4942841;28;20061;-83
2022/04/26 15:27:15;;;;;;;5.75;2.10;;;13.50;96.50;;;;;;4969870;28;20073;-82
2022/04/26 15:29:42;;;;;;;5.25;1.60;;;13.60;96.70;;;;;;5000404;28;20074;-82
2022/04/26 15:32:08;;;;;;;8.23;2.30;;;13.40;95.00;;;;;;4982059;28;20503;-82
2022/04/26 15:34:34;;;;;;;8.70;2.25;;;13.30;94.80;;;;;;4984888;28;20455;-83
2022/04/26 15:37:00;;;;;;;8.50;2.63;;;13.20;95.90;;;;;;4968935;28;20050;-84
2022/04/26 15:39:26;;;;;;;7.15;2.50;;;13.10;96.40;;;;;;4942340;28;20046;-82
2022/04/26 15:41:52;;;;;;;6.13;2.00;;;13.10;96.50;;;;;;4977557;28;20043;-82
2022/04/26 15:44:18;;;;;;;8.80;2.75;;;13.10;95.90;;;;;;4971955;28;20055;-83
2022/04/26 15:46:47;;;;;;;7.55;2.28;;;13.50;97.60;;;;;;4932406;28;20117;-82
2022/04/26 15:49:12;;;;;;;6.90;2.50;;;13.20;97.40;;;;;;4935357;28;20055;-82
2022/04/26 15:51:41;;;;;;;8.00;2.80;;;13.10;97.60;;;;;;4934035;28;20394;-82
2022/04/26 15:54:07;;;;;;;9.35;2.88;;;13.10;97.30;;;;;;4950257;28;20062;-81
2022/04/26 15:56:33;;;;;;;9.20;2.50;;;13.00;97.80;;;;;;4949244;28;20070;-83
2022/04/26 15:59:00;;;;;;;9.77;2.50;;;13.00;98.20;;;;;;4930950;28;20093;-83
2022/04/26 16:01:26;;;;;;;7.13;2.45;;;13.10;98.30;;;;;;4927036;28;20047;-82
2022/04/26 16:03:52;;;;;;;16.08;3.72;;;13.00;98.40;;;;;;4961521;28;20058;-82
2022/04/26 16:06:19;;;;;;;7.45;2.58;;;13.00;98.50;;;;;;4945935;28;20047;-83
2022/04/26 16:08:44;;;;;;;7.80;2.67;;;13.00;98.70;;;;;;4946327;28;20047;-84
2022/04/26 16:22:07;;;;;;;7.63;2.00;;;12.40;99.40;;;;;;4948030;28;20051;-87
2022/04/26 16:24:38;;;;;;;12.15;2.20;;;12.20;99.80;;;;;;4930523;28;20055;-82
2022/04/26 16:27:05;;;;;;;10.52;2.60;;;12.10;99.90;;;;;;4945383;28;20059;-83
2022/04/26 16:29:31;;;;;;;6.78;2.53;;;12.00;99.90;;;;;;4930702;28;20173;-82
2022/04/26 16:31:57;;;;;;;7.43;2.63;;;12.00;99.90;;;;;;4946706;28;20137;-82
2022/04/26 16:34:22;;;;;;;8.45;2.40;;;12.00;99.90;;;;;;4965506;28;20038;-82
2022/04/26 16:36:48;;;;;;;7.00;2.05;;;12.00;99.90;;;;;;4949408;28;20049;-83
2022/04/26 16:39:14;;;;;;;6.72;2.20;;;12.00;99.90;;;;;;4932373;28;20047;-81
2022/04/26 16:41:40;;;;;;;8.52;2.10;;;11.90;99.30;;;;;;4943913;28;20173;-87
2022/04/26 16:44:07;;;;;;;8.57;2.10;;;11.80;99.30;;;;;;4929800;28;20051;-84
2022/04/26 16:46:33;;;;;;;8.10;2.25;;;11.70;99.90;;;;;;4928370;28;20050;-87
2022/04/26 16:49:01;;;;;;;6.55;1.90;;;11.50;99.90;;;;;;4946012;28;20120;-84
2022/04/26 16:51:30;;;;;;;7.75;2.28;;;11.40;99.90;;;;;;4932079;28;20074;-84
2022/04/26 16:53:56;;;;;;;6.18;2.33;;;11.20;99.90;;;;;;4946854;28;20042;-84
2022/04/26 16:56:22;;;;;;;7.55;2.30;;;11.10;99.90;;;;;;4958525;28;20046;-82
2022/04/26 16:58:48;;;;;;;7.90;2.13;;;11.10;99.90;;;;;;4943543;28;20046;-83
2022/04/26 17:01:14;;;;;;;7.35;2.00;;;11.00;99.90;;;;;;4924914;28;20066;-83
2022/04/26 17:03:39;;;;;;;6.68;2.08;;;11.00;99.90;;;;;;4976624;28;20543;-83
2022/04/26 17:06:05;;;;;;;5.78;2.00;;;11.00;99.90;;;;;;4962116;28;20699;-85
2022/04/26 17:08:31;;;;;;;9.32;2.13;;;11.00;99.90;;;;;;4929793;28;20043;-83
2022/04/26 17:11:41;;;;;;;8.65;2.17;;;11.00;99.90;;;;;;4965061;28;20053;-82
2022/04/26 17:13:45;;;;;;;11.10;2.40;;;11.00;99.90;;;;;;4964479;28;20053;-82